Time;durP1;ratioP1;P1;durP2;ratioP2;P2;SDS_P1;SDS_P2;PMS_P1;PMS_P2;Temp;Humidity;BMP_temperature;BMP_pressure;BME280_temperature;BME280_humidity;BME280_pressure;Samples;Min_cycle;Max_cycle;Signal;HPM_P1;HPM_P2
2021/12/28 00:00:44;;;;;;;133.88;65.72;;;;;;;6.93;80.04;99292.41;5045266;28;20267;-71
2021/12/28 00:03:09;;;;;;;134.98;64.65;;;;;;;7.03;79.97;99305.50;5044908;28;20228;-75
2021/12/28 00:05:35;;;;;;;145.15;65.15;;;;;;;7.02;80.47;99306.47;5045005;28;20049;-71
2021/12/28 00:08:00;;;;;;;141.40;67.43;;;;;;;6.91;80.05;99301.44;5044908;28;20071;-70
2021/12/28 00:10:26;;;;;;;139.32;65.38;;;;;;;7.00;79.72;99321.59;5044497;28;20204;-71
2021/12/28 00:12:51;;;;;;;126.53;60.22;;;;;;;6.48;79.56;99317.91;5044760;28;20037;-72
2021/12/28 00:18:04;;;;;;;110.22;54.55;;;;;;;6.09;80.89;99313.59;5044888;28;20029;-71
2021/12/28 00:20:37;;;;;;;413.65;66.22;;;;;;;6.30;79.88;99325.75;5044797;28;20060;-69
2021/12/28 00:23:10;;;;;;;170.67;63.37;;;;;;;5.76;82.05;99324.59;5044770;28;20048;-69
2021/12/28 00:25:36;;;;;;;286.55;63.17;;;;;;;5.47;83.94;99316.78;5044282;28;20817;-72
2021/12/28 00:28:03;;;;;;;250.27;65.27;;;;;;;5.58;85.06;99344.69;5044606;28;20033;-69
2021/12/28 00:30:29;;;;;;;160.75;63.33;;;;;;;5.57;86.17;99335.97;5044501;28;20347;-72
2021/12/28 00:32:56;;;;;;;154.03;63.47;;;;;;;5.81;84.84;99342.56;5043985;28;20041;-73
2021/12/28 00:35:28;;;;;;;157.67;64.80;;;;;;;5.63;85.01;99339.84;5043409;28;20195;-71
2021/12/28 00:37:54;;;;;;;150.25;63.60;;;;;;;5.82;84.90;99338.97;5044711;28;20045;-69
2021/12/28 00:40:20;;;;;;;131.27;61.05;;;;;;;5.84;85.61;99318.63;5042779;28;20341;-73
2021/12/28 00:42:45;;;;;;;136.00;62.28;;;;;;;6.07;83.96;99338.38;5044335;28;20033;-73
2021/12/28 00:45:11;;;;;;;140.73;64.13;;;;;;;6.14;83.86;99339.47;5044323;28;20025;-69
2021/12/28 00:47:37;;;;;;;138.90;64.25;;;;;;;6.11;83.15;99336.28;5043613;28;20040;-73
2021/12/28 00:50:04;;;;;;;134.02;61.20;;;;;;;6.01;83.18;99338.97;5026663;28;20021;-73
2021/12/28 00:52:29;;;;;;;128.50;57.95;;;;;;;6.15;80.91;99349.00;5043897;28;20108;-69
2021/12/28 00:54:55;;;;;;;124.63;60.75;;;;;;;6.04;81.85;99333.41;5043996;28;20033;-69
2021/12/28 00:57:20;;;;;;;120.68;58.03;;;;;;;5.85;82.85;99341.31;5043882;28;20040;-73
2021/12/28 00:59:46;;;;;;;156.13;68.23;;;;;;;6.06;81.37;99363.84;5044282;28;20033;-69
2021/12/28 01:02:11;;;;;;;141.75;63.78;;;;;;;6.01;82.11;99334.53;5044074;28;20045;-73
2021/12/28 01:04:36;;;;;;;141.30;65.67;;;;;;;6.18;81.58;99348.72;5043658;28;20041;-73
2021/12/28 01:07:03;;;;;;;139.57;67.22;;;;;;;6.11;81.81;99346.81;5044227;28;20041;-68
2021/12/28 01:09:30;;;;;;;132.63;64.03;;;;;;;6.11;82.17;99345.00;5043766;28;20379;-69
2021/12/28 01:11:59;;;;;;;135.38;62.65;;;;;;;6.21;81.07;99342.34;5043184;28;20041;-69
2021/12/28 01:14:26;;;;;;;146.90;66.82;;;;;;;6.08;79.16;99335.59;5042648;28;20071;-72
2021/12/28 01:16:52;;;;;;;126.28;58.17;;;;;;;5.68;77.85;99351.56;5043749;28;20034;-73
2021/12/28 01:19:17;;;;;;;235.60;58.72;;;;;;;5.57;83.30;99341.22;5043301;28;20048;-72
2021/12/28 01:21:43;;;;;;;504.77;79.40;;;;;;;5.65;80.57;99353.66;5043656;28;20029;-72
2021/12/28 01:24:08;;;;;;;302.17;74.83;;;;;;;5.42;82.26;99340.81;5043588;28;20033;-69
2021/12/28 01:26:34;;;;;;;334.63;67.10;;;;;;;5.27;84.57;99341.38;5043478;28;20041;-73
2021/12/28 01:28:59;;;;;;;162.63;61.30;;;;;;;5.27;85.47;99341.38;5043481;28;20108;-72
2021/12/28 01:31:25;;;;;;;120.43;60.33;;;;;;;5.49;88.17;99341.09;5042001;28;20393;-68
2021/12/28 01:33:50;;;;;;;138.23;61.30;;;;;;;5.60;88.17;99340.13;5043399;28;20039;-69
2021/12/28 01:36:15;;;;;;;129.43;59.90;;;;;;;5.62;87.13;99332.94;5043501;28;20033;-69
2021/12/28 01:38:41;;;;;;;125.23;59.77;;;;;;;5.70;86.44;99336.50;5043196;28;20040;-70
2021/12/28 01:41:09;;;;;;;130.23;58.37;;;;;;;5.73;86.02;99319.63;5042066;28;20120;-69
2021/12/28 01:43:38;;;;;;;125.90;61.38;;;;;;;5.87;84.19;99318.34;5043214;28;20211;-69
2021/12/28 01:46:03;;;;;;;128.05;59.00;;;;;;;5.97;82.69;99322.66;5043174;28;20254;-69
2021/12/28 01:48:37;;;;;;;111.18;53.78;;;;;;;5.59;81.94;99328.78;5042980;28;20057;-73
2021/12/28 01:51:09;;;;;;;117.53;59.43;;;;;;;5.15;81.76;99314.41;5043009;28;20255;-70
2021/12/28 01:53:35;;;;;;;112.50;57.70;;;;;;;5.53;83.89;99323.25;5042913;28;20054;-70
2021/12/28 01:56:06;;;;;;;117.40;57.63;;;;;;;5.89;82.44;99335.66;5042803;28;20282;-69
2021/12/28 01:58:32;;;;;;;120.18;57.72;;;;;;;5.85;80.77;99313.25;5042831;28;20025;-72
2021/12/28 02:00:58;;;;;;;120.27;59.27;;;;;;;5.97;81.67;99321.81;5043006;28;20045;-73
2021/12/28 02:03:26;;;;;;;118.75;57.28;;;;;;;5.99;81.95;99330.38;5041492;28;20096;-73
2021/12/28 02:05:52;;;;;;;125.57;60.80;;;;;;;6.09;80.94;99336.44;5043061;28;20261;-70
2021/12/28 02:08:19;;;;;;;116.63;56.83;;;;;;;6.16;80.81;99345.41;5042559;28;20036;-73
2021/12/28 02:10:46;;;;;;;159.73;70.88;;;;;;;6.08;79.90;99334.78;5042576;28;20034;-72
2021/12/28 02:13:13;;;;;;;168.23;70.90;;;;;;;6.29;80.26;99330.16;5042584;28;20089;-69
2021/12/28 02:15:39;;;;;;;152.20;72.00;;;;;;;6.19;80.71;99312.75;5042713;28;20034;-73
2021/12/28 02:18:06;;;;;;;139.82;66.50;;;;;;;6.14;80.84;99314.97;5040593;28;20031;-70
2021/12/28 02:20:32;;;;;;;142.90;65.53;;;;;;;6.11;81.49;99321.34;5036806;28;20363;-73
2021/12/28 02:22:57;;;;;;;179.57;86.38;;;;;;;6.37;80.35;99322.38;5035299;28;20037;-69
2021/12/28 02:25:23;;;;;;;151.43;74.95;;;;;;;6.37;79.16;99313.66;5038978;28;20030;-73
2021/12/28 02:27:49;;;;;;;136.73;65.40;;;;;;;6.17;80.97;99320.78;5040781;28;20053;-69
2021/12/28 02:30:18;;;;;;;119.35;61.42;;;;;;;6.12;80.51;99307.25;5037040;28;20021;-69
2021/12/28 02:32:46;;;;;;;109.97;57.22;;;;;;;6.24;78.96;99332.41;5035903;28;20025;-70
2021/12/28 02:35:17;;;;;;;114.18;55.05;;;;;;;6.20;77.29;99323.13;5039479;28;20029;-70
2021/12/28 02:37:44;;;;;;;139.07;70.40;;;;;;;5.96;81.02;99330.66;5040723;28;20025;-69
2021/12/28 02:40:13;;;;;;;123.82;62.75;;;;;;;6.09;81.32;99336.44;5035992;28;20033;-73
2021/12/28 02:42:40;;;;;;;111.72;59.00;;;;;;;6.11;82.18;99334.50;5033584;28;20260;-73
2021/12/28 02:45:10;;;;;;;110.35;59.60;;;;;;;6.11;81.71;99333.66;5027429;28;20197;-72
2021/12/28 02:47:41;;;;;;;104.77;58.30;;;;;;;5.96;81.77;99323.63;5036267;28;20211;-72
2021/12/28 02:50:12;;;;;;;109.05;55.67;;;;;;;6.06;82.47;99320.97;5042504;28;20063;-73
2021/12/28 02:52:38;;;;;;;103.25;55.60;;;;;;;6.12;81.31;99325.63;5041757;28;20384;-74
2021/12/28 02:55:11;;;;;;;102.88;56.78;;;;;;;6.16;81.23;99303.34;5042321;28;20303;-73
2021/12/28 02:57:37;;;;;;;102.03;58.08;;;;;;;6.22;80.77;99302.78;5041893;28;20357;-71
2021/12/28 03:00:05;;;;;;;102.63;56.95;;;;;;;6.32;81.09;99310.66;5042002;28;20036;-70
2021/12/28 03:02:32;;;;;;;100.40;54.78;;;;;;;6.42;81.38;99318.50;5042353;28;20323;-73
2021/12/28 03:04:57;;;;;;;106.40;56.88;;;;;;;6.49;81.15;99316.94;5040980;28;20312;-73
2021/12/28 03:07:23;;;;;;;104.45;56.05;;;;;;;6.50;80.96;99319.41;5041632;28;20025;-72
2021/12/28 03:09:49;;;;;;;100.85;56.78;;;;;;;6.45;81.30;99326.91;5040966;28;20144;-70
2021/12/28 03:12:14;;;;;;;108.82;60.17;;;;;;;6.18;81.97;99326.88;5042005;28;20101;-75
2021/12/28 03:14:40;;;;;;;122.00;65.18;;;;;;;6.32;81.33;99300.94;5041897;28;20205;-75
2021/12/28 03:17:06;;;;;;;122.88;63.17;;;;;;;6.46;81.88;99309.34;5041926;28;20328;-71
2021/12/28 03:19:31;;;;;;;116.65;61.55;;;;;;;6.50;81.12;99316.78;5042037;28;20033;-70
2021/12/28 03:21:58;;;;;;;135.40;62.07;;;;;;;6.52;81.68;99311.38;5041710;28;20030;-70
2021/12/28 03:24:24;;;;;;;146.07;65.50;;;;;;;6.53;81.64;99292.81;5041703;28;20025;-70
2021/12/28 03:26:50;;;;;;;135.63;67.43;;;;;;;6.64;80.88;99305.75;5041948;28;20026;-69
2021/12/28 03:29:15;;;;;;;143.82;70.95;;;;;;;6.69;80.43;99306.16;5041758;28;20055;-73
2021/12/28 03:31:41;;;;;;;163.10;73.55;;;;;;;6.71;80.79;99308.63;5041816;28;20224;-72
2021/12/28 03:34:06;;;;;;;121.22;62.85;;;;;;;6.28;81.66;99291.69;5039090;28;20021;-70
2021/12/28 03:36:32;;;;;;;119.85;62.70;;;;;;;6.40;81.32;99293.16;5037192;28;20176;-73
2021/12/28 03:38:58;;;;;;;130.25;66.07;;;;;;;6.32;82.61;99314.09;5043926;28;20212;-70
2021/12/28 03:41:26;;;;;;;124.25;65.85;;;;;;;6.05;83.66;99303.53;5043405;28;20208;-68
2021/12/28 03:43:53;;;;;;;133.40;65.22;;;;;;;6.15;84.60;99303.50;5026652;28;20259;-71
2021/12/28 03:46:20;;;;;;;155.38;72.72;;;;;;;6.03;84.80;99302.84;5025295;28;20165;-72
2021/12/28 03:48:46;;;;;;;128.93;67.22;;;;;;;6.21;84.00;99292.41;5039272;28;20029;-75
2021/12/28 03:51:12;;;;;;;128.95;65.25;;;;;;;6.40;83.36;99298.41;5038107;28;20037;-74
2021/12/28 03:53:38;;;;;;;131.05;70.32;;;;;;;6.45;81.39;99297.97;5037490;28;20105;-75
2021/12/28 03:56:07;;;;;;;129.75;66.53;;;;;;;6.52;80.90;99314.84;5038750;28;20022;-71
2021/12/28 03:58:33;;;;;;;138.82;68.70;;;;;;;6.48;81.20;99323.16;5037243;28;20033;-72
2021/12/28 04:00:59;;;;;;;222.00;88.07;;;;;;;6.54;80.88;99320.78;5038892;28;20025;-71
2021/12/28 04:03:25;;;;;;;133.65;64.25;;;;;;;6.60;79.88;99330.72;5037205;28;20024;-71
2021/12/28 04:05:51;;;;;;;122.60;61.45;;;;;;;6.33;79.23;99314.94;5041434;28;20332;-71
2021/12/28 04:08:21;;;;;;;109.10;59.42;;;;;;;6.32;79.52;99316.72;5043222;28;20192;-75
2021/12/28 04:10:53;;;;;;;111.85;57.00;;;;;;;6.44;78.91;99332.31;5039247;28;20030;-71
2021/12/28 04:13:21;;;;;;;101.28;53.58;;;;;;;6.45;77.78;99337.44;5035199;28;20017;-69
2021/12/28 04:15:46;;;;;;;117.63;64.20;;;;;;;6.46;78.84;99340.88;5038452;28;20038;-73
2021/12/28 04:18:13;;;;;;;120.93;62.92;;;;;;;6.34;79.96;99324.47;5042267;28;20029;-69
2021/12/28 04:20:39;;;;;;;115.93;63.03;;;;;;;6.28;79.84;99309.28;5041541;28;20071;-70
2021/12/28 04:23:04;;;;;;;116.28;60.45;;;;;;;6.37;79.89;99327.63;5038088;28;20032;-69
2021/12/28 04:25:31;;;;;;;114.80;62.50;;;;;;;6.36;80.91;99340.94;5036207;28;20041;-69
2021/12/28 04:27:57;;;;;;;115.38;59.13;;;;;;;6.23;80.78;99335.16;5038138;28;20033;-73
2021/12/28 04:30:22;;;;;;;120.00;60.47;;;;;;;6.37;80.05;99342.59;5036491;28;20025;-69
2021/12/28 04:32:48;;;;;;;131.18;68.13;;;;;;;6.44;79.59;99337.56;5042556;28;20037;-70
2021/12/28 04:35:16;;;;;;;126.38;66.80;;;;;;;6.34;80.44;99335.00;5043036;28;20029;-70
2021/12/28 04:37:41;;;;;;;135.68;65.78;;;;;;;6.31;80.33;99348.44;5035550;28;20026;-73
2021/12/28 04:40:08;;;;;;;143.25;68.95;;;;;;;6.37;79.94;99337.34;5037889;28;20064;-73
2021/12/28 04:42:34;;;;;;;139.23;69.93;;;;;;;6.27;80.65;99342.63;5037787;28;20040;-69
2021/12/28 04:45:00;;;;;;;146.63;73.75;;;;;;;5.58;84.09;99344.69;5037364;28;20029;-73
2021/12/28 04:47:26;;;;;;;155.80;79.15;;;;;;;5.72;84.92;99331.09;5043028;28;20029;-70
2021/12/28 04:49:51;;;;;;;171.03;84.07;;;;;;;5.94;84.48;99349.22;5039710;28;20315;-72
2021/12/28 04:52:17;;;;;;;172.87;84.03;;;;;;;5.96;83.70;99351.69;5036467;28;20053;-74
2021/12/28 04:54:43;;;;;;;169.13;84.22;;;;;;;5.99;82.56;99340.91;5023119;28;20223;-69
2021/12/28 04:57:08;;;;;;;157.07;77.05;;;;;;;5.87;82.38;99310.47;5022485;28;20080;-69
2021/12/28 04:59:34;;;;;;;163.82;77.18;;;;;;;6.12;82.33;99348.47;5036188;28;20083;-75
2021/12/28 05:02:00;;;;;;;136.27;64.80;;;;;;;6.10;82.56;99353.88;5035858;28;20018;-70
2021/12/28 05:04:26;;;;;;;116.38;58.33;;;;;;;5.98;83.28;99341.88;5033724;28;20010;-73
2021/12/28 05:06:53;;;;;;;115.30;57.78;;;;;;;5.85;84.71;99339.50;5042592;28;20026;-69
2021/12/28 05:09:19;;;;;;;112.90;56.00;;;;;;;6.00;84.58;99348.63;5040707;28;20235;-73
2021/12/28 05:11:45;;;;;;;114.00;57.45;;;;;;;6.18;82.65;99347.91;5039270;28;20231;-73
2021/12/28 05:14:11;;;;;;;125.75;58.60;;;;;;;6.23;81.14;99351.75;5043347;28;20033;-71
2021/12/28 05:16:36;;;;;;;120.30;58.70;;;;;;;6.24;81.55;99356.06;5038996;28;20025;-74
2021/12/28 05:19:05;;;;;;;105.82;53.75;;;;;;;6.26;80.76;99358.56;5042563;28;20052;-69
2021/12/28 05:21:31;;;;;;;113.07;54.22;;;;;;;6.04;82.13;99352.63;5033117;28;20254;-69
2021/12/28 05:23:57;;;;;;;103.13;54.57;;;;;;;6.15;81.72;99361.31;5036583;28;20026;-73
2021/12/28 05:26:23;;;;;;;107.90;54.47;;;;;;;6.17;82.28;99359.38;5037552;28;20252;-70
2021/12/28 05:28:48;;;;;;;99.55;53.92;;;;;;;6.32;81.31;99357.97;5042298;28;20048;-73
2021/12/28 05:31:14;;;;;;;122.32;57.72;;;;;;;6.32;81.27;99358.81;5040357;28;20222;-70
2021/12/28 05:33:40;;;;;;;120.78;56.65;;;;;;;6.30;81.14;99362.56;5035866;28;20026;-73
2021/12/28 05:36:06;;;;;;;115.40;55.90;;;;;;;6.18;80.96;99353.97;5040110;28;20219;-70
2021/12/28 05:38:32;;;;;;;110.43;54.87;;;;;;;6.26;79.41;99369.91;5041634;28;20032;-72
2021/12/28 05:40:58;;;;;;;143.10;65.97;;;;;;;5.83;78.25;99370.34;5036630;28;20029;-73
2021/12/28 05:43:23;;;;;;;153.73;68.80;;;;;;;5.38;78.86;99357.00;5040306;28;20093;-69
2021/12/28 05:45:49;;;;;;;143.87;70.67;;;;;;;5.26;82.71;99374.69;5040637;28;20037;-70
2021/12/28 05:48:14;;;;;;;150.50;71.53;;;;;;;5.36;83.21;99380.75;5036317;28;20207;-73
2021/12/28 05:50:39;;;;;;;134.77;65.33;;;;;;;5.52;80.45;99371.50;5031941;28;20097;-69
2021/12/28 05:53:05;;;;;;;192.37;77.27;;;;;;;5.50;80.09;99360.31;5034930;28;20037;-69
2021/12/28 05:55:31;;;;;;;153.03;71.77;;;;;;;5.64;80.77;99375.63;5035280;28;20057;-73
2021/12/28 05:57:57;;;;;;;147.87;67.67;;;;;;;5.54;80.39;99374.81;5035720;28;20071;-72
2021/12/28 06:00:24;;;;;;;125.05;63.20;;;;;;;5.41;81.53;99375.09;5033252;28;20033;-73
2021/12/28 06:02:50;;;;;;;123.33;61.70;;;;;;;5.63;79.10;99356.44;5037867;28;20227;-73
2021/12/28 06:05:16;;;;;;;125.50;64.37;;;;;;;5.74;79.08;99377.28;5041390;28;20044;-68
2021/12/28 06:07:41;;;;;;;138.77;72.63;;;;;;;5.62;80.31;99383.66;5039089;28;20030;-68
2021/12/28 06:10:07;;;;;;;120.17;62.70;;;;;;;5.50;81.16;99376.06;5033686;28;20036;-73
2021/12/28 06:12:33;;;;;;;118.05;62.65;;;;;;;5.76;79.31;99383.22;5035269;28;20073;-73
2021/12/28 06:14:59;;;;;;;126.40;61.77;;;;;;;5.78;77.73;99380.47;5034825;28;20034;-72
2021/12/28 06:17:24;;;;;;;113.77;57.77;;;;;;;5.83;76.57;99393.19;5036581;28;20029;-73
2021/12/28 06:19:50;;;;;;;111.22;58.20;;;;;;;5.73;77.33;99395.81;5038060;28;20377;-73
2021/12/28 06:22:16;;;;;;;129.10;61.20;;;;;;;5.74;77.98;99395.69;5041273;28;20041;-72
2021/12/28 06:24:41;;;;;;;114.47;57.83;;;;;;;5.89;77.04;99403.13;5037551;28;20102;-73
2021/12/28 06:27:07;;;;;;;110.68;55.70;;;;;;;5.56;76.35;99344.81;5034667;28;20042;-73
2021/12/28 06:29:33;;;;;;;110.20;55.70;;;;;;;5.91;76.11;99409.94;5040672;28;20029;-73
2021/12/28 06:31:58;;;;;;;107.80;56.72;;;;;;;5.80;78.13;99401.34;5037349;28;20038;-70
2021/12/28 06:34:24;;;;;;;104.10;57.10;;;;;;;5.80;77.70;99377.69;5041413;28;20025;-72
2021/12/28 06:36:49;;;;;;;113.87;60.03;;;;;;;5.94;78.41;99395.69;5039152;28;20022;-73
2021/12/28 06:39:15;;;;;;;113.82;60.88;;;;;;;6.05;78.04;99383.22;5034266;28;20029;-73
2021/12/28 06:41:40;;;;;;;105.03;56.67;;;;;;;6.17;77.62;99397.00;5034963;28;20243;-72
2021/12/28 06:44:09;;;;;;;105.35;53.00;;;;;;;6.24;76.42;99397.28;5035793;28;20350;-73
2021/12/28 06:46:35;;;;;;;100.45;53.60;;;;;;;6.24;76.51;99403.38;5034647;28;20078;-73
2021/12/28 06:49:00;;;;;;;111.50;59.92;;;;;;;6.26;76.99;99404.06;5034771;28;20033;-70
2021/12/28 06:51:26;;;;;;;122.28;62.13;;;;;;;6.28;77.83;99407.38;5035056;28;20065;-73
2021/12/28 06:53:51;;;;;;;112.18;58.45;;;;;;;6.32;77.08;99400.03;5034369;28;20060;-71
2021/12/28 06:56:17;;;;;;;126.00;63.97;;;;;;;6.27;77.65;99403.09;5037371;28;20088;-68
2021/12/28 06:58:42;;;;;;;117.80;61.63;;;;;;;6.12;78.03;99395.78;5038810;28;20131;-70
2021/12/28 07:01:08;;;;;;;161.25;82.10;;;;;;;6.17;79.82;99401.44;5041291;28;20068;-73
2021/12/28 07:03:34;;;;;;;140.27;76.28;;;;;;;6.44;79.79;99409.41;5040607;28;20036;-69
2021/12/28 07:05:59;;;;;;;245.13;114.55;;;;;;;6.51;79.48;99409.66;5041752;28;20376;-67
2021/12/28 07:08:26;;;;;;;192.93;96.63;;;;;;;6.75;78.82;99402.09;5041278;28;20029;-70
2021/12/28 07:10:51;;;;;;;151.80;77.75;;;;;;;6.69;78.80;99397.41;5037866;28;20045;-68
2021/12/28 07:13:17;;;;;;;172.45;84.82;;;;;;;6.75;79.20;99388.09;5031047;28;20325;-69
2021/12/28 07:15:42;;;;;;;174.02;91.55;;;;;;;7.00;79.08;99406.66;5041734;28;20030;-68
2021/12/28 07:18:08;;;;;;;192.98;92.82;;;;;;;7.13;80.29;99400.22;5031466;28;20025;-69
2021/12/28 07:20:33;;;;;;;142.70;78.97;;;;;;;7.14;78.49;99383.44;5045632;28;20033;-71
2021/12/28 07:22:59;;;;;;;144.52;76.20;;;;;;;7.03;79.85;99400.28;5044609;28;20021;-71
2021/12/28 07:25:24;;;;;;;140.13;72.85;;;;;;;7.13;80.16;99394.94;5045864;28;20036;-72
2021/12/28 07:27:51;;;;;;;131.75;69.82;;;;;;;7.28;80.94;99409.25;5045322;28;20097;-72
2021/12/28 07:30:17;;;;;;;130.98;68.75;;;;;;;7.58;79.50;99414.19;5045722;28;20262;-71
2021/12/28 07:32:42;;;;;;;136.88;71.28;;;;;;;7.77;79.25;99396.56;5045482;28;20025;-71
2021/12/28 07:35:10;;;;;;;137.90;72.82;;;;;;;8.01;78.31;99397.56;5045305;28;20033;-75
2021/12/28 07:37:36;;;;;;;138.45;76.28;;;;;;;8.05;78.69;99398.09;5045610;28;20026;-75
2021/12/28 07:40:04;;;;;;;132.63;70.72;;;;;;;8.14;79.08;99397.16;5044393;28;20029;-72
2021/12/28 07:42:29;;;;;;;112.28;59.42;;;;;;;8.28;78.90;99395.75;5044836;28;20049;-75
2021/12/28 07:44:55;;;;;;;67.70;38.13;;;;;;;8.28;78.60;99404.50;5045630;28;20315;-76
2021/12/28 07:47:20;;;;;;;66.22;34.33;;;;;;;7.91;80.42;99386.28;5045565;28;20039;-75
2021/12/28 07:49:46;;;;;;;82.88;49.05;;;;;;;8.36;79.42;99387.97;5045329;28;20035;-71
2021/12/28 07:52:11;;;;;;;127.28;65.55;;;;;;;8.50;79.19;99384.72;5044964;28;20064;-72
2021/12/28 07:54:37;;;;;;;120.03;61.40;;;;;;;8.51;79.55;99386.38;5045258;28;20017;-71
2021/12/28 07:57:03;;;;;;;100.38;54.15;;;;;;;8.68;78.62;99387.28;5045144;28;20033;-72
2021/12/28 07:59:28;;;;;;;102.43;53.25;;;;;;;8.52;79.49;99390.69;5045160;28;20071;-76
2021/12/28 08:01:54;;;;;;;148.65;60.38;;;;;;;8.56;80.37;99386.75;5045305;28;20034;-75
2021/12/28 08:04:20;;;;;;;96.05;44.72;;;;;;;8.22;81.96;99377.91;5045028;28;20089;-76
2021/12/28 08:06:46;;;;;;;84.13;44.60;;;;;;;8.38;82.92;99387.81;5043858;28;20038;-76
2021/12/28 08:09:11;;;;;;;73.03;40.53;;;;;;;8.81;81.47;99387.66;5045094;28;20219;-73
2021/12/28 08:11:37;;;;;;;65.03;35.38;;;;;;;8.92;81.28;99383.91;5045184;28;20109;-74
2021/12/28 08:14:04;;;;;;;64.38;33.05;;;;;;;9.15;80.21;99392.06;5045034;28;20025;-69
2021/12/28 08:16:30;;;;;;;62.13;32.67;;;;;;;9.18;80.34;99387.28;5045274;28;20033;-74
2021/12/28 08:18:55;;;;;;;111.13;46.40;;;;;;;9.35;80.16;99385.50;5043193;28;20024;-73
2021/12/28 08:21:21;;;;;;;61.83;32.25;;;;;;;9.60;79.80;99387.22;5044956;28;20049;-71
2021/12/28 08:23:46;;;;;;;55.75;31.52;;;;;;;9.79;78.96;99383.41;5044716;28;20223;-68
2021/12/28 08:26:12;;;;;;;51.92;28.52;;;;;;;9.80;80.08;99392.16;5045234;28;20036;-69
2021/12/28 08:28:38;;;;;;;51.88;29.63;;;;;;;10.08;78.49;99398.75;5044682;28;20045;-74
2021/12/28 08:31:04;;;;;;;51.17;29.63;;;;;;;10.13;78.95;99388.50;5044651;28;20037;-69
2021/12/28 08:33:29;;;;;;;48.00;26.98;;;;;;;10.37;78.23;99371.78;5044507;28;20037;-75
2021/12/28 08:35:56;;;;;;;50.95;28.23;;;;;;;10.51;76.93;99362.34;5037432;28;20338;-69
2021/12/28 08:38:22;;;;;;;53.78;28.20;;;;;;;10.68;77.54;99366.56;5041225;28;20034;-69
2021/12/28 08:40:48;;;;;;;50.58;27.83;;;;;;;10.91;76.81;99390.47;5042907;28;20259;-69
2021/12/28 08:43:13;;;;;;;53.50;29.83;;;;;;;11.00;77.34;99383.31;5037136;28;20065;-70
2021/12/28 08:45:40;;;;;;;94.78;36.45;;;;;;;10.99;78.21;99385.13;5037567;28;20041;-74
2021/12/28 08:48:07;;;;;;;86.13;36.72;;;;;;;10.98;79.90;99385.31;5035759;28;20037;-74
2021/12/28 08:50:33;;;;;;;60.85;30.35;;;;;;;10.96;79.14;99377.53;5043096;28;20223;-74
2021/12/28 08:52:59;;;;;;;52.00;29.35;;;;;;;11.13;79.77;99373.78;5041240;28;20037;-74
2021/12/28 08:55:25;;;;;;;53.17;28.42;;;;;;;11.38;78.39;99382.41;5037477;28;20157;-69
2021/12/28 08:57:51;;;;;;;47.97;28.67;;;;;;;11.31;80.26;99364.75;5035165;28;20030;-69
2021/12/28 09:00:20;;;;;;;58.95;31.52;;;;;;;11.44;79.22;99370.28;5034433;28;20341;-69
2021/12/28 09:02:46;;;;;;;59.40;29.83;;;;;;;11.36;79.98;99363.22;5035610;28;20025;-74
2021/12/28 09:05:12;;;;;;;60.42;30.13;;;;;;;11.51;79.34;99364.13;5043055;28;20040;-69
2021/12/28 09:07:38;;;;;;;45.38;26.73;;;;;;;11.41;80.48;99360.03;5041850;28;20030;-70
2021/12/28 09:10:05;;;;;;;49.40;27.77;;;;;;;11.57;79.81;99361.78;5041549;28;20028;-69
2021/12/28 09:12:30;;;;;;;48.08;25.85;;;;;;;11.47;79.56;99349.56;5040696;28;20054;-69
2021/12/28 09:14:56;;;;;;;55.45;27.42;;;;;;;11.78;78.98;99352.16;5035724;28;20251;-69
2021/12/28 09:17:21;;;;;;;45.85;25.17;;;;;;;11.59;80.33;99349.97;5035433;28;20267;-74
2021/12/28 09:19:47;;;;;;;42.97;24.42;;;;;;;11.60;80.63;99348.97;5036760;28;20029;-69
2021/12/28 09:22:12;;;;;;;54.33;27.45;;;;;;;11.51;81.66;99331.50;5024482;28;20331;-70
2021/12/28 09:24:38;;;;;;;49.83;27.15;;;;;;;11.65;81.30;99332.53;5023857;28;20100;-74
2021/12/28 09:27:05;;;;;;;53.60;27.35;;;;;;;11.78;80.81;99332.78;5023279;28;20069;-74
2021/12/28 09:29:31;;;;;;;47.58;26.42;;;;;;;11.89;80.73;99329.69;5023818;28;20053;-69
2021/12/28 09:31:59;;;;;;;55.17;30.40;;;;;;;11.80;81.08;99331.59;5022752;28;20472;-69
2021/12/28 09:34:25;;;;;;;54.13;29.90;;;;;;;11.76;82.47;99326.78;5023285;28;20223;-69
2021/12/28 09:36:51;;;;;;;53.50;27.70;;;;;;;11.44;83.35;99322.56;5023624;28;20156;-73
2021/12/28 09:39:22;;;;;;;56.97;26.10;;;;;;;11.75;82.18;99333.09;5022602;28;20044;-69
2021/12/28 09:41:50;;;;;;;43.63;23.45;;;;;;;11.90;81.84;99328.69;5022981;28;20037;-69
2021/12/28 09:44:16;;;;;;;42.05;23.88;;;;;;;11.87;83.25;99318.44;5023652;28;20037;-75
2021/12/28 09:46:42;;;;;;;35.97;21.08;;;;;;;11.85;83.10;99317.78;5023686;28;20049;-74
2021/12/28 09:49:07;;;;;;;40.08;21.70;;;;;;;11.49;84.51;99307.81;5023033;28;20260;-69
2021/12/28 09:51:33;;;;;;;46.25;24.80;;;;;;;11.29;86.17;99297.84;5023225;28;20080;-74
2021/12/28 09:53:58;;;;;;;44.00;24.83;;;;;;;11.41;87.22;99299.88;5023249;28;20080;-69
2021/12/28 09:56:24;;;;;;;41.10;24.13;;;;;;;11.39;87.87;99303.72;5022761;28;20101;-71
2021/12/28 09:58:49;;;;;;;43.00;23.75;;;;;;;11.72;85.72;99299.00;5040336;28;20323;-70
2021/12/28 10:01:15;;;;;;;42.03;23.45;;;;;;;11.71;86.53;99289.38;5041633;28;20151;-69
2021/12/28 10:03:40;;;;;;;46.65;23.90;;;;;;;11.78;86.88;99290.34;5042135;28;20029;-73
2021/12/28 10:06:18;;;;;;;41.38;22.63;;;;;;;11.86;87.92;99292.91;5043070;28;20315;-73
2021/12/28 10:08:44;;;;;;;38.40;23.08;;;;;;;11.95;87.44;99288.34;5042809;28;20037;-68
2021/12/28 10:11:09;;;;;;;36.78;19.50;;;;;;;12.00;85.70;99275.34;5042311;28;20041;-74
2021/12/28 10:13:35;;;;;;;42.60;23.08;;;;;;;12.05;84.49;99284.41;5043182;28;20037;-73
2021/12/28 10:16:00;;;;;;;50.70;28.40;;;;;;;12.00;86.71;99291.28;5041709;28;20033;-69
2021/12/28 10:18:27;;;;;;;43.38;27.25;;;;;;;11.93;86.45;99288.53;5042209;28;20303;-69
2021/12/28 10:20:56;;;;;;;40.20;22.92;;;;;;;11.97;86.14;99275.72;5042878;28;20044;-72
2021/12/28 10:23:27;;;;;;;36.03;21.15;;;;;;;12.21;85.31;99286.06;5041942;28;20033;-74
2021/12/28 10:25:56;;;;;;;51.78;27.38;;;;;;;12.33;85.21;99281.94;5042043;28;20033;-74
2021/12/28 10:28:29;;;;;;;52.10;27.00;;;;;;;12.32;85.11;99280.28;5041314;28;20349;-68
2021/12/28 10:31:01;;;;;;;32.28;21.35;;;;;;;12.39;85.84;99273.22;5042537;28;20049;-68
2021/12/28 10:33:29;;;;;;;39.58;23.35;;;;;;;12.45;85.61;99264.53;5042097;28;20040;-68
2021/12/28 10:35:57;;;;;;;43.42;22.45;;;;;;;12.51;85.49;99270.13;5042421;28;20242;-73
2021/12/28 10:38:36;;;;;;;35.70;21.70;;;;;;;12.54;84.86;99254.66;5042302;28;20060;-73
2021/12/28 10:41:10;;;;;;;38.67;23.00;;;;;;;12.66;84.07;99258.47;5042489;28;20084;-69
2021/12/28 10:43:39;;;;;;;40.10;23.30;;;;;;;12.64;83.94;99252.53;5042014;28;20060;-73
2021/12/28 10:46:10;;;;;;;38.22;23.17;;;;;;;12.58;84.77;99258.56;5041350;28;20034;-73
2021/12/28 10:48:39;;;;;;;42.13;22.55;;;;;;;12.50;86.02;99260.53;5041971;28;20089;-73
2021/12/28 10:51:09;;;;;;;44.85;23.65;;;;;;;12.51;86.09;99249.72;5042052;28;20033;-68
2021/12/28 10:54:34;;;;;;;39.10;22.52;;;;;;;12.56;84.76;99243.84;5040768;28;20235;-73
2021/12/28 10:56:57;;;;;;;38.90;23.88;;;;;;;12.62;84.90;99251.06;5025077;28;20042;-69
2021/12/28 10:59:33;;;;;;;40.45;22.88;;;;;;;12.69;84.15;99238.69;5021987;28;20073;-73
2021/12/28 11:01:59;;;;;;;35.47;21.92;;;;;;;12.62;84.17;99238.59;5022274;28;20025;-73
2021/12/28 11:04:31;;;;;;;38.42;22.42;;;;;;;12.77;84.83;99241.22;5022571;28;20112;-70
2021/12/28 11:06:57;;;;;;;36.08;22.05;;;;;;;12.62;84.81;99232.47;5021019;28;20362;-68
2021/12/28 11:09:25;;;;;;;38.50;21.83;;;;;;;12.69;83.90;99223.56;5022073;28;20034;-73
2021/12/28 11:11:55;;;;;;;37.33;20.77;;;;;;;12.75;83.74;99220.16;5022025;28;20036;-68
2021/12/28 11:14:26;;;;;;;37.38;21.10;;;;;;;12.74;83.89;99221.16;5022172;28;20041;-73
2021/12/28 11:16:54;;;;;;;35.75;21.70;;;;;;;12.87;82.89;99230.28;5022111;28;20044;-70